Terminal Aerodrome Forecast
Issued by NWS

Home | Current Version | Previous Version | Text Only | Print | Product List | Glossary On
Versions: 1 2 3 4 5 6 7 8 9 10 11 12 13 14 15 16 17 18 19 20 21
000
FTUS43 KDLH 261600 AAB
TAFBRD
TAF AMD
KBRD 261617Z 2616/2712 35012KT P6SM OVC017
      TEMPO 2616/2618 4SM -SN
     FM261800 35012KT P6SM BKN035 OVC080
     FM270000 34006KT P6SM SCT080=

USA.gov is the U.S. government's official web portal to all federal, state and local government web resources and services.